sensor_id;sensor_type;location;lat;lon;timestamp;P1;durP1;ratioP1;P2;durP2;ratioP2
70450;SDS011;58869;51.982;4.450;2023-03-21T00:02:20;19.81;;;19.73;;
70450;SDS011;58869;51.982;4.450;2023-03-21T00:04:47;20.40;;;20.29;;
70450;SDS011;58869;51.982;4.450;2023-03-21T00:07:13;21.47;;;21.46;;
70450;SDS011;58869;51.982;4.450;2023-03-21T00:09:53;22.10;;;22.10;;
70450;SDS011;58869;51.982;4.450;2023-03-21T00:12:38;23.63;;;23.63;;
70450;SDS011;58869;51.982;4.450;2023-03-21T00:15:06;23.47;;;23.47;;
70450;SDS011;58869;51.982;4.450;2023-03-21T00:17:34;23.61;;;23.54;;
70450;SDS011;58869;51.982;4.450;2023-03-21T00:20:00;24.50;;;24.46;;
70450;SDS011;58869;51.982;4.450;2023-03-21T00:22:35;25.10;;;25.10;;
70450;SDS011;58869;51.982;4.450;2023-03-21T00:25:07;25.59;;;25.57;;
70450;SDS011;58869;51.982;4.450;2023-03-21T00:27:35;25.77;;;25.77;;
70450;SDS011;58869;51.982;4.450;2023-03-21T00:30:03;26.16;;;26.15;;
70450;SDS011;58869;51.982;4.450;2023-03-21T00:32:30;26.41;;;26.41;;
70450;SDS011;58869;51.982;4.450;2023-03-21T00:34:55;25.77;;;25.77;;
70450;SDS011;58869;51.982;4.450;2023-03-21T00:37:21;25.12;;;25.12;;
70450;SDS011;58869;51.982;4.450;2023-03-21T00:39:47;24.58;;;24.58;;
70450;SDS011;58869;51.982;4.450;2023-03-21T00:42:15;24.47;;;24.47;;
70450;SDS011;58869;51.982;4.450;2023-03-21T00:44:41;23.80;;;23.80;;
70450;SDS011;58869;51.982;4.450;2023-03-21T00:47:09;23.29;;;23.28;;
70450;SDS011;58869;51.982;4.450;2023-03-21T00:49:39;22.09;;;22.09;;
70450;SDS011;58869;51.982;4.450;2023-03-21T00:52:10;22.40;;;22.40;;
70450;SDS011;58869;51.982;4.450;2023-03-21T00:54:38;21.85;;;21.85;;
70450;SDS011;58869;51.982;4.450;2023-03-21T00:57:04;22.58;;;22.58;;
70450;SDS011;58869;51.982;4.450;2023-03-21T00:59:29;21.73;;;21.73;;
70450;SDS011;58869;51.982;4.450;2023-03-21T01:01:55;22.83;;;22.83;;
70450;SDS011;58869;51.982;4.450;2023-03-21T01:04:24;23.05;;;23.05;;
70450;SDS011;58869;51.982;4.450;2023-03-21T01:06:51;23.78;;;23.78;;
70450;SDS011;58869;51.982;4.450;2023-03-21T01:09:18;23.70;;;23.70;;
70450;SDS011;58869;51.982;4.450;2023-03-21T01:11:46;22.91;;;22.74;;
70450;SDS011;58869;51.982;4.450;2023-03-21T01:14:13;22.34;;;22.21;;
70450;SDS011;58869;51.982;4.450;2023-03-21T01:16:39;21.84;;;21.83;;
70450;SDS011;58869;51.982;4.450;2023-03-21T01:21:33;21.19;;;21.11;;
70450;SDS011;58869;51.982;4.450;2023-03-21T01:23:59;20.85;;;20.70;;
70450;SDS011;58869;51.982;4.450;2023-03-21T01:26:25;20.42;;;20.39;;
70450;SDS011;58869;51.982;4.450;2023-03-21T01:28:51;20.22;;;20.22;;
70450;SDS011;58869;51.982;4.450;2023-03-21T01:31:16;20.26;;;20.26;;
70450;SDS011;58869;51.982;4.450;2023-03-21T01:33:42;19.47;;;19.41;;
70450;SDS011;58869;51.982;4.450;2023-03-21T01:36:12;19.30;;;19.30;;
70450;SDS011;58869;51.982;4.450;2023-03-21T01:38:43;18.69;;;18.68;;
70450;SDS011;58869;51.982;4.450;2023-03-21T01:41:43;18.79;;;18.79;;
70450;SDS011;58869;51.982;4.450;2023-03-21T01:44:06;18.13;;;18.13;;
70450;SDS011;58869;51.982;4.450;2023-03-21T01:49:20;16.27;;;16.26;;
70450;SDS011;58869;51.982;4.450;2023-03-21T01:52:06;15.70;;;15.68;;
70450;SDS011;58869;51.982;4.450;2023-03-21T01:54:34;15.22;;;15.22;;
70450;SDS011;58869;51.982;4.450;2023-03-21T01:57:04;14.40;;;14.38;;
70450;SDS011;58869;51.982;4.450;2023-03-21T01:59:38;14.84;;;14.83;;
70450;SDS011;58869;51.982;4.450;2023-03-21T02:02:08;15.30;;;15.30;;
70450;SDS011;58869;51.982;4.450;2023-03-21T02:04:37;14.53;;;14.53;;
70450;SDS011;58869;51.982;4.450;2023-03-21T02:07:04;14.74;;;14.74;;
70450;SDS011;58869;51.982;4.450;2023-03-21T02:09:41;14.80;;;14.80;;
70450;SDS011;58869;51.982;4.450;2023-03-21T02:12:10;14.68;;;14.68;;
70450;SDS011;58869;51.982;4.450;2023-03-21T02:14:47;14.86;;;14.86;;
70450;SDS011;58869;51.982;4.450;2023-03-21T02:17:34;14.25;;;14.18;;
70450;SDS011;58869;51.982;4.450;2023-03-21T02:23:09;13.26;;;13.17;;
70450;SDS011;58869;51.982;4.450;2023-03-21T02:26:21;13.05;;;13.04;;
70450;SDS011;58869;51.982;4.450;2023-03-21T02:40:34;12.67;;;12.67;;
70450;SDS011;58869;51.982;4.450;2023-03-21T02:43:30;13.22;;;13.22;;
70450;SDS011;58869;51.982;4.450;2023-03-21T02:46:09;12.43;;;12.42;;
70450;SDS011;58869;51.982;4.450;2023-03-21T02:48:55;12.64;;;12.57;;
70450;SDS011;58869;51.982;4.450;2023-03-21T02:51:33;12.99;;;12.99;;
70450;SDS011;58869;51.982;4.450;2023-03-21T03:00:16;14.31;;;14.19;;
70450;SDS011;58869;51.982;4.450;2023-03-21T03:02:47;14.88;;;14.69;;
70450;SDS011;58869;51.982;4.450;2023-03-21T03:05:18;14.88;;;14.80;;
70450;SDS011;58869;51.982;4.450;2023-03-21T03:10:55;15.53;;;15.47;;
70450;SDS011;58869;51.982;4.450;2023-03-21T03:16:03;15.82;;;15.75;;
70450;SDS011;58869;51.982;4.450;2023-03-21T03:21:28;16.23;;;16.15;;
70450;SDS011;58869;51.982;4.450;2023-03-21T03:24:08;17.38;;;17.33;;
70450;SDS011;58869;51.982;4.450;2023-03-21T03:26:49;17.88;;;17.80;;
70450;SDS011;58869;51.982;4.450;2023-03-21T03:29:20;17.59;;;17.57;;
70450;SDS011;58869;51.982;4.450;2023-03-21T03:31:55;17.91;;;17.82;;
70450;SDS011;58869;51.982;4.450;2023-03-21T03:34:25;17.15;;;17.04;;
70450;SDS011;58869;51.982;4.450;2023-03-21T03:37:06;16.52;;;16.51;;
70450;SDS011;58869;51.982;4.450;2023-03-21T03:39:35;17.12;;;17.11;;
70450;SDS011;58869;51.982;4.450;2023-03-21T03:42:15;17.50;;;17.48;;
70450;SDS011;58869;51.982;4.450;2023-03-21T03:44:44;17.16;;;17.15;;
70450;SDS011;58869;51.982;4.450;2023-03-21T03:47:11;16.63;;;16.49;;
70450;SDS011;58869;51.982;4.450;2023-03-21T03:52:35;16.91;;;16.76;;
70450;SDS011;58869;51.982;4.450;2023-03-21T03:55:08;16.92;;;16.75;;
70450;SDS011;58869;51.982;4.450;2023-03-21T03:57:36;16.72;;;16.65;;
70450;SDS011;58869;51.982;4.450;2023-03-21T04:00:02;16.13;;;16.11;;
70450;SDS011;58869;51.982;4.450;2023-03-21T04:02:57;16.31;;;16.20;;
70450;SDS011;58869;51.982;4.450;2023-03-21T04:05:33;15.78;;;15.68;;
70450;SDS011;58869;51.982;4.450;2023-03-21T04:08:01;15.71;;;15.64;;
70450;SDS011;58869;51.982;4.450;2023-03-21T04:10:29;16.30;;;16.21;;
70450;SDS011;58869;51.982;4.450;2023-03-21T04:12:55;16.21;;;16.17;;
70450;SDS011;58869;51.982;4.450;2023-03-21T04:15:29;15.96;;;15.92;;
70450;SDS011;58869;51.982;4.450;2023-03-21T04:17:55;16.43;;;16.39;;
70450;SDS011;58869;51.982;4.450;2023-03-21T04:20:20;17.13;;;16.91;;
70450;SDS011;58869;51.982;4.450;2023-03-21T04:22:46;17.65;;;17.32;;
70450;SDS011;58869;51.982;4.450;2023-03-21T04:25:12;16.61;;;16.48;;
70450;SDS011;58869;51.982;4.450;2023-03-21T04:27:38;16.95;;;16.90;;
70450;SDS011;58869;51.982;4.450;2023-03-21T04:30:04;16.85;;;16.77;;
70450;SDS011;58869;51.982;4.450;2023-03-21T04:32:31;16.37;;;16.27;;
70450;SDS011;58869;51.982;4.450;2023-03-21T04:34:58;16.66;;;16.50;;
70450;SDS011;58869;51.982;4.450;2023-03-21T04:37:24;16.80;;;16.55;;
70450;SDS011;58869;51.982;4.450;2023-03-21T04:39:50;16.62;;;16.56;;
70450;SDS011;58869;51.982;4.450;2023-03-21T04:42:16;16.48;;;16.34;;
70450;SDS011;58869;51.982;4.450;2023-03-21T04:44:43;16.46;;;16.29;;
70450;SDS011;58869;51.982;4.450;2023-03-21T04:47:09;16.95;;;16.90;;
70450;SDS011;58869;51.982;4.450;2023-03-21T04:49:37;16.88;;;16.82;;
70450;SDS011;58869;51.982;4.450;2023-03-21T04:52:03;16.80;;;16.69;;
70450;SDS011;58869;51.982;4.450;2023-03-21T04:54:29;16.16;;;15.86;;
70450;SDS011;58869;51.982;4.450;2023-03-21T04:56:56;16.15;;;16.10;;
70450;SDS011;58869;51.982;4.450;2023-03-21T04:59:22;17.19;;;16.98;;
70450;SDS011;58869;51.982;4.450;2023-03-21T05:01:48;17.50;;;17.43;;
70450;SDS011;58869;51.982;4.450;2023-03-21T05:04:14;17.81;;;17.65;;
70450;SDS011;58869;51.982;4.450;2023-03-21T05:06:40;17.55;;;17.42;;
70450;SDS011;58869;51.982;4.450;2023-03-21T05:09:09;18.59;;;18.39;;
70450;SDS011;58869;51.982;4.450;2023-03-21T05:11:38;18.29;;;18.18;;
70450;SDS011;58869;51.982;4.450;2023-03-21T05:14:09;18.40;;;18.28;;
70450;SDS011;58869;51.982;4.450;2023-03-21T05:16:45;18.70;;;18.61;;
70450;SDS011;58869;51.982;4.450;2023-03-21T05:19:24;18.69;;;18.46;;
70450;SDS011;58869;51.982;4.450;2023-03-21T05:22:02;18.77;;;18.66;;
70450;SDS011;58869;51.982;4.450;2023-03-21T05:24:30;19.80;;;19.61;;
70450;SDS011;58869;51.982;4.450;2023-03-21T05:27:00;19.16;;;18.98;;
70450;SDS011;58869;51.982;4.450;2023-03-21T05:29:28;20.11;;;19.88;;
70450;SDS011;58869;51.982;4.450;2023-03-21T05:31:56;20.17;;;19.83;;
70450;SDS011;58869;51.982;4.450;2023-03-21T05:34:23;18.99;;;18.96;;
70450;SDS011;58869;51.982;4.450;2023-03-21T05:36:52;19.87;;;19.65;;
70450;SDS011;58869;51.982;4.450;2023-03-21T05:39:20;19.19;;;19.17;;
70450;SDS011;58869;51.982;4.450;2023-03-21T05:41:46;19.13;;;19.09;;
70450;SDS011;58869;51.982;4.450;2023-03-21T05:44:14;20.17;;;20.08;;
70450;SDS011;58869;51.982;4.450;2023-03-21T05:46:40;18.52;;;18.50;;
70450;SDS011;58869;51.982;4.450;2023-03-21T05:49:19;19.10;;;19.05;;
70450;SDS011;58869;51.982;4.450;2023-03-21T05:51:46;18.94;;;18.80;;
70450;SDS011;58869;51.982;4.450;2023-03-21T05:54:12;18.87;;;18.84;;
70450;SDS011;58869;51.982;4.450;2023-03-21T05:56:55;18.52;;;18.45;;
70450;SDS011;58869;51.982;4.450;2023-03-21T05:59:22;17.71;;;17.70;;
70450;SDS011;58869;51.982;4.450;2023-03-21T06:01:48;16.97;;;16.88;;
70450;SDS011;58869;51.982;4.450;2023-03-21T06:04:13;17.21;;;17.03;;
70450;SDS011;58869;51.982;4.450;2023-03-21T06:06:45;16.77;;;16.75;;
70450;SDS011;58869;51.982;4.450;2023-03-21T06:09:20;17.31;;;17.16;;
70450;SDS011;58869;51.982;4.450;2023-03-21T06:11:48;17.20;;;17.17;;
70450;SDS011;58869;51.982;4.450;2023-03-21T06:56:48;15.68;;;15.59;;
70450;SDS011;58869;51.982;4.450;2023-03-21T06:59:15;14.45;;;14.40;;
70450;SDS011;58869;51.982;4.450;2023-03-21T07:02:16;14.25;;;14.23;;
70450;SDS011;58869;51.982;4.450;2023-03-21T07:04:41;14.31;;;14.17;;
70450;SDS011;58869;51.982;4.450;2023-03-21T07:07:07;13.75;;;13.74;;
70450;SDS011;58869;51.982;4.450;2023-03-21T07:12:35;13.27;;;13.26;;
70450;SDS011;58869;51.982;4.450;2023-03-21T08:25:56;10.87;;;10.87;;
70450;SDS011;58869;51.982;4.450;2023-03-21T08:37:00;9.82;;;9.82;;
70450;SDS011;58869;51.982;4.450;2023-03-21T08:39:25;10.03;;;10.03;;
70450;SDS011;58869;51.982;4.450;2023-03-21T08:41:54;10.34;;;10.33;;
70450;SDS011;58869;51.982;4.450;2023-03-21T08:50:58;10.43;;;10.43;;
70450;SDS011;58869;51.982;4.450;2023-03-21T09:00:28;10.55;;;10.55;;
70450;SDS011;58869;51.982;4.450;2023-03-21T09:09:30;11.12;;;11.11;;
70450;SDS011;58869;51.982;4.450;2023-03-21T09:12:05;12.17;;;12.14;;
70450;SDS011;58869;51.982;4.450;2023-03-21T09:14:39;12.70;;;12.69;;
70450;SDS011;58869;51.982;4.450;2023-03-21T09:17:18;12.51;;;12.45;;
70450;SDS011;58869;51.982;4.450;2023-03-21T09:19:44;12.81;;;12.81;;
70450;SDS011;58869;51.982;4.450;2023-03-21T09:22:13;13.14;;;13.12;;
70450;SDS011;58869;51.982;4.450;2023-03-21T09:24:48;13.74;;;13.70;;
70450;SDS011;58869;51.982;4.450;2023-03-21T09:27:15;13.83;;;13.82;;
70450;SDS011;58869;51.982;4.450;2023-03-21T09:29:50;14.49;;;14.48;;
70450;SDS011;58869;51.982;4.450;2023-03-21T09:32:16;14.65;;;14.65;;
70450;SDS011;58869;51.982;4.450;2023-03-21T09:34:42;14.22;;;14.22;;
70450;SDS011;58869;51.982;4.450;2023-03-21T09:37:09;14.30;;;14.30;;
70450;SDS011;58869;51.982;4.450;2023-03-21T09:39:35;14.56;;;14.56;;
70450;SDS011;58869;51.982;4.450;2023-03-21T09:47:31;15.67;;;15.62;;
70450;SDS011;58869;51.982;4.450;2023-03-21T09:50:15;15.03;;;14.99;;
70450;SDS011;58869;51.982;4.450;2023-03-21T09:52:58;15.12;;;15.12;;
70450;SDS011;58869;51.982;4.450;2023-03-21T09:55:33;15.09;;;15.08;;
70450;SDS011;58869;51.982;4.450;2023-03-21T10:03:33;14.25;;;14.23;;
70450;SDS011;58869;51.982;4.450;2023-03-21T10:06:12;14.12;;;14.08;;
70450;SDS011;58869;51.982;4.450;2023-03-21T10:08:42;13.73;;;13.73;;
70450;SDS011;58869;51.982;4.450;2023-03-21T10:11:17;13.05;;;13.05;;
70450;SDS011;58869;51.982;4.450;2023-03-21T10:14:00;13.47;;;13.47;;
70450;SDS011;58869;51.982;4.450;2023-03-21T10:16:35;13.13;;;13.13;;
70450;SDS011;58869;51.982;4.450;2023-03-21T10:19:15;12.16;;;12.16;;
70450;SDS011;58869;51.982;4.450;2023-03-21T10:21:44;12.41;;;12.41;;
70450;SDS011;58869;51.982;4.450;2023-03-21T10:24:15;12.84;;;12.84;;
70450;SDS011;58869;51.982;4.450;2023-03-21T10:26:44;12.54;;;12.54;;
70450;SDS011;58869;51.982;4.450;2023-03-21T10:29:11;12.69;;;12.69;;
70450;SDS011;58869;51.982;4.450;2023-03-21T10:31:44;12.39;;;12.39;;
70450;SDS011;58869;51.982;4.450;2023-03-21T10:34:25;13.36;;;13.36;;
70450;SDS011;58869;51.982;4.450;2023-03-21T10:36:58;13.71;;;13.71;;
70450;SDS011;58869;51.982;4.450;2023-03-21T10:39:31;15.76;;;15.76;;
70450;SDS011;58869;51.982;4.450;2023-03-21T10:42:25;16.90;;;16.90;;
70450;SDS011;58869;51.982;4.450;2023-03-21T10:44:57;17.45;;;17.45;;
70450;SDS011;58869;51.982;4.450;2023-03-21T10:47:26;15.97;;;15.97;;
70450;SDS011;58869;51.982;4.450;2023-03-21T10:50:14;14.75;;;14.75;;
70450;SDS011;58869;51.982;4.450;2023-03-21T10:52:59;16.55;;;16.54;;
70450;SDS011;58869;51.982;4.450;2023-03-21T10:55:29;18.57;;;18.57;;
70450;SDS011;58869;51.982;4.450;2023-03-21T10:58:01;16.31;;;16.29;;
70450;SDS011;58869;51.982;4.450;2023-03-21T11:00:44;16.90;;;16.90;;
70450;SDS011;58869;51.982;4.450;2023-03-21T11:03:44;17.64;;;17.63;;
70450;SDS011;58869;51.982;4.450;2023-03-21T11:18:49;16.68;;;16.68;;
70450;SDS011;58869;51.982;4.450;2023-03-21T11:25:08;16.16;;;16.16;;
70450;SDS011;58869;51.982;4.450;2023-03-21T11:33:26;14.56;;;14.56;;
70450;SDS011;58869;51.982;4.450;2023-03-21T11:41:42;10.38;;;10.38;;
70450;SDS011;58869;51.982;4.450;2023-03-21T11:44:08;9.93;;;9.93;;
70450;SDS011;58869;51.982;4.450;2023-03-21T11:46:51;10.50;;;10.50;;
70450;SDS011;58869;51.982;4.450;2023-03-21T11:49:16;11.41;;;11.41;;
70450;SDS011;58869;51.982;4.450;2023-03-21T11:54:14;12.81;;;12.81;;
70450;SDS011;58869;51.982;4.450;2023-03-21T11:56:48;13.24;;;13.24;;
70450;SDS011;58869;51.982;4.450;2023-03-21T11:59:22;12.64;;;12.64;;
70450;SDS011;58869;51.982;4.450;2023-03-21T12:04:39;11.31;;;11.31;;
70450;SDS011;58869;51.982;4.450;2023-03-21T12:07:19;10.54;;;10.54;;
70450;SDS011;58869;51.982;4.450;2023-03-21T12:10:03;9.17;;;9.17;;
70450;SDS011;58869;51.982;4.450;2023-03-21T12:13:07;9.77;;;9.75;;
70450;SDS011;58869;51.982;4.450;2023-03-21T12:15:49;11.67;;;11.67;;
70450;SDS011;58869;51.982;4.450;2023-03-21T12:21:19;10.27;;;10.27;;
70450;SDS011;58869;51.982;4.450;2023-03-21T12:23:57;9.23;;;9.23;;
70450;SDS011;58869;51.982;4.450;2023-03-21T12:39:26;10.12;;;10.12;;
70450;SDS011;58869;51.982;4.450;2023-03-21T12:42:15;10.67;;;10.67;;
70450;SDS011;58869;51.982;4.450;2023-03-21T12:44:53;11.43;;;11.43;;
70450;SDS011;58869;51.982;4.450;2023-03-21T12:47:42;11.31;;;11.31;;
70450;SDS011;58869;51.982;4.450;2023-03-21T12:56:19;11.80;;;11.80;;
70450;SDS011;58869;51.982;4.450;2023-03-21T12:59:12;11.71;;;11.71;;
70450;SDS011;58869;51.982;4.450;2023-03-21T13:01:50;12.49;;;12.49;;
70450;SDS011;58869;51.982;4.450;2023-03-21T13:07:08;13.85;;;13.85;;
70450;SDS011;58869;51.982;4.450;2023-03-21T13:09:39;13.23;;;13.23;;
70450;SDS011;58869;51.982;4.450;2023-03-21T13:12:15;13.94;;;13.94;;
70450;SDS011;58869;51.982;4.450;2023-03-21T13:15:13;13.32;;;13.32;;
70450;SDS011;58869;51.982;4.450;2023-03-21T13:18:11;13.08;;;13.08;;
70450;SDS011;58869;51.982;4.450;2023-03-21T13:20:56;13.69;;;13.69;;
70450;SDS011;58869;51.982;4.450;2023-03-21T13:23:24;13.68;;;13.68;;
70450;SDS011;58869;51.982;4.450;2023-03-21T13:25:51;13.39;;;13.39;;
70450;SDS011;58869;51.982;4.450;2023-03-21T13:28:33;14.53;;;14.53;;
70450;SDS011;58869;51.982;4.450;2023-03-21T13:33:52;13.58;;;13.58;;
70450;SDS011;58869;51.982;4.450;2023-03-21T13:36:23;15.68;;;15.68;;
70450;SDS011;58869;51.982;4.450;2023-03-21T13:38:51;15.14;;;15.14;;
70450;SDS011;58869;51.982;4.450;2023-03-21T13:41:29;13.95;;;13.95;;
70450;SDS011;58869;51.982;4.450;2023-03-21T13:54:15;15.49;;;15.49;;
70450;SDS011;58869;51.982;4.450;2023-03-21T13:59:12;14.98;;;14.98;;
70450;SDS011;58869;51.982;4.450;2023-03-21T14:01:56;16.57;;;16.57;;
70450;SDS011;58869;51.982;4.450;2023-03-21T14:04:24;16.48;;;16.48;;
70450;SDS011;58869;51.982;4.450;2023-03-21T14:06:55;12.10;;;12.10;;
70450;SDS011;58869;51.982;4.450;2023-03-21T14:09:26;10.77;;;10.77;;
70450;SDS011;58869;51.982;4.450;2023-03-21T14:11:54;10.61;;;10.61;;
70450;SDS011;58869;51.982;4.450;2023-03-21T14:14:23;9.85;;;9.85;;
70450;SDS011;58869;51.982;4.450;2023-03-21T14:16:57;10.64;;;10.64;;
70450;SDS011;58869;51.982;4.450;2023-03-21T14:19:29;12.57;;;12.57;;
70450;SDS011;58869;51.982;4.450;2023-03-21T14:21:56;13.53;;;13.53;;
70450;SDS011;58869;51.982;4.450;2023-03-21T14:24:22;13.47;;;13.47;;
70450;SDS011;58869;51.982;4.450;2023-03-21T14:26:49;13.57;;;13.57;;
70450;SDS011;58869;51.982;4.450;2023-03-21T14:29:19;13.00;;;13.00;;
70450;SDS011;58869;51.982;4.450;2023-03-21T14:31:49;13.12;;;13.12;;
70450;SDS011;58869;51.982;4.450;2023-03-21T14:34:15;12.56;;;12.56;;
70450;SDS011;58869;51.982;4.450;2023-03-21T14:36:41;10.47;;;10.47;;
70450;SDS011;58869;51.982;4.450;2023-03-21T14:41:53;10.25;;;10.25;;
70450;SDS011;58869;51.982;4.450;2023-03-21T14:44:31;9.19;;;9.19;;
70450;SDS011;58869;51.982;4.450;2023-03-21T14:47:05;8.40;;;8.40;;
70450;SDS011;58869;51.982;4.450;2023-03-21T14:49:33;7.21;;;7.21;;
70450;SDS011;58869;51.982;4.450;2023-03-21T14:52:06;7.79;;;7.79;;
70450;SDS011;58869;51.982;4.450;2023-03-21T14:54:38;7.77;;;7.77;;
70450;SDS011;58869;51.982;4.450;2023-03-21T14:57:09;7.38;;;7.38;;
70450;SDS011;58869;51.982;4.450;2023-03-21T14:59:39;6.95;;;6.95;;
70450;SDS011;58869;51.982;4.450;2023-03-21T15:02:39;8.14;;;8.14;;
70450;SDS011;58869;51.982;4.450;2023-03-21T15:05:05;7.56;;;7.56;;
70450;SDS011;58869;51.982;4.450;2023-03-21T15:07:34;7.04;;;7.04;;
70450;SDS011;58869;51.982;4.450;2023-03-21T15:10:11;6.93;;;6.93;;
70450;SDS011;58869;51.982;4.450;2023-03-21T15:13:17;7.28;;;7.28;;
70450;SDS011;58869;51.982;4.450;2023-03-21T15:15:50;7.52;;;7.52;;
70450;SDS011;58869;51.982;4.450;2023-03-21T15:18:23;6.62;;;6.62;;
70450;SDS011;58869;51.982;4.450;2023-03-21T15:20:59;7.11;;;7.11;;
70450;SDS011;58869;51.982;4.450;2023-03-21T15:23:30;6.80;;;6.80;;
70450;SDS011;58869;51.982;4.450;2023-03-21T15:26:02;6.87;;;6.87;;
70450;SDS011;58869;51.982;4.450;2023-03-21T15:28:29;7.05;;;7.05;;
70450;SDS011;58869;51.982;4.450;2023-03-21T15:30:57;6.28;;;6.28;;
70450;SDS011;58869;51.982;4.450;2023-03-21T15:33:24;5.78;;;5.78;;
70450;SDS011;58869;51.982;4.450;2023-03-21T15:35:55;5.77;;;5.77;;
70450;SDS011;58869;51.982;4.450;2023-03-21T15:38:29;5.43;;;5.43;;
70450;SDS011;58869;51.982;4.450;2023-03-21T15:44:04;4.65;;;4.65;;
70450;SDS011;58869;51.982;4.450;2023-03-21T15:52:11;6.38;;;6.38;;
70450;SDS011;58869;51.982;4.450;2023-03-21T15:54:43;6.57;;;6.57;;
70450;SDS011;58869;51.982;4.450;2023-03-21T15:57:28;6.66;;;6.66;;
70450;SDS011;58869;51.982;4.450;2023-03-21T16:02:48;7.09;;;7.09;;
70450;SDS011;58869;51.982;4.450;2023-03-21T16:05:32;6.99;;;6.99;;
70450;SDS011;58869;51.982;4.450;2023-03-21T16:08:02;6.48;;;6.48;;
70450;SDS011;58869;51.982;4.450;2023-03-21T16:10:35;6.56;;;6.56;;
70450;SDS011;58869;51.982;4.450;2023-03-21T16:13:02;6.61;;;6.61;;
70450;SDS011;58869;51.982;4.450;2023-03-21T16:15:30;6.26;;;6.26;;
70450;SDS011;58869;51.982;4.450;2023-03-21T16:17:59;6.41;;;6.41;;
70450;SDS011;58869;51.982;4.450;2023-03-21T16:20:28;6.06;;;6.06;;
70450;SDS011;58869;51.982;4.450;2023-03-21T16:41:10;5.38;;;5.38;;
70450;SDS011;58869;51.982;4.450;2023-03-21T16:43:36;5.52;;;5.52;;
70450;SDS011;58869;51.982;4.450;2023-03-21T16:46:09;5.66;;;5.66;;
70450;SDS011;58869;51.982;4.450;2023-03-21T16:48:36;4.86;;;4.86;;
70450;SDS011;58869;51.982;4.450;2023-03-21T16:51:02;3.52;;;3.52;;
70450;SDS011;58869;51.982;4.450;2023-03-21T16:56:04;2.94;;;2.67;;
70450;SDS011;58869;51.982;4.450;2023-03-21T16:58:35;2.90;;;2.58;;
70450;SDS011;58869;51.982;4.450;2023-03-21T17:01:01;2.81;;;2.43;;
70450;SDS011;58869;51.982;4.450;2023-03-21T17:03:46;3.01;;;2.48;;
70450;SDS011;58869;51.982;4.450;2023-03-21T17:06:25;3.42;;;2.71;;
70450;SDS011;58869;51.982;4.450;2023-03-21T17:08:53;2.89;;;2.30;;
70450;SDS011;58869;51.982;4.450;2023-03-21T17:11:47;3.22;;;2.47;;
70450;SDS011;58869;51.982;4.450;2023-03-21T17:14:13;2.74;;;2.02;;
70450;SDS011;58869;51.982;4.450;2023-03-21T17:16:43;3.25;;;2.34;;
70450;SDS011;58869;51.982;4.450;2023-03-21T17:19:11;3.33;;;2.40;;
70450;SDS011;58869;51.982;4.450;2023-03-21T17:21:42;3.34;;;2.44;;
70450;SDS011;58869;51.982;4.450;2023-03-21T17:24:10;3.16;;;2.31;;
70450;SDS011;58869;51.982;4.450;2023-03-21T17:26:51;3.18;;;2.32;;
70450;SDS011;58869;51.982;4.450;2023-03-21T17:29:29;3.25;;;2.36;;
70450;SDS011;58869;51.982;4.450;2023-03-21T17:34:40;3.65;;;2.59;;
70450;SDS011;58869;51.982;4.450;2023-03-21T17:37:09;3.00;;;2.16;;
70450;SDS011;58869;51.982;4.450;2023-03-21T17:39:44;3.29;;;2.33;;
70450;SDS011;58869;51.982;4.450;2023-03-21T17:42:19;3.31;;;2.36;;
70450;SDS011;58869;51.982;4.450;2023-03-21T17:44:46;3.50;;;2.52;;
70450;SDS011;58869;51.982;4.450;2023-03-21T17:47:19;3.30;;;2.39;;
70450;SDS011;58869;51.982;4.450;2023-03-21T17:49:54;3.61;;;2.59;;
70450;SDS011;58869;51.982;4.450;2023-03-21T17:52:23;4.12;;;2.90;;
70450;SDS011;58869;51.982;4.450;2023-03-21T17:54:56;4.17;;;2.93;;
70450;SDS011;58869;51.982;4.450;2023-03-21T17:57:27;4.57;;;3.14;;
70450;SDS011;58869;51.982;4.450;2023-03-21T17:59:53;4.94;;;3.38;;
70450;SDS011;58869;51.982;4.450;2023-03-21T18:02:21;4.74;;;3.21;;
70450;SDS011;58869;51.982;4.450;2023-03-21T18:04:52;4.78;;;3.27;;
70450;SDS011;58869;51.982;4.450;2023-03-21T18:07:27;5.15;;;3.54;;
70450;SDS011;58869;51.982;4.450;2023-03-21T18:10:10;5.32;;;3.67;;
70450;SDS011;58869;51.982;4.450;2023-03-21T18:15:39;5.88;;;4.04;;
70450;SDS011;58869;51.982;4.450;2023-03-21T18:18:08;5.18;;;3.60;;
70450;SDS011;58869;51.982;4.450;2023-03-21T18:20:36;5.69;;;3.94;;
70450;SDS011;58869;51.982;4.450;2023-03-21T18:23:05;5.86;;;4.02;;
70450;SDS011;58869;51.982;4.450;2023-03-21T18:25:30;5.79;;;4.10;;
70450;SDS011;58869;51.982;4.450;2023-03-21T18:27:57;5.91;;;4.19;;
70450;SDS011;58869;51.982;4.450;2023-03-21T18:30:22;6.12;;;4.34;;
70450;SDS011;58869;51.982;4.450;2023-03-21T18:32:48;6.03;;;4.29;;
70450;SDS011;58869;51.982;4.450;2023-03-21T18:35:15;6.95;;;4.93;;
70450;SDS011;58869;51.982;4.450;2023-03-21T18:37:44;6.34;;;4.51;;
70450;SDS011;58869;51.982;4.450;2023-03-21T18:40:10;6.21;;;4.37;;
70450;SDS011;58869;51.982;4.450;2023-03-21T18:42:38;6.39;;;4.43;;
70450;SDS011;58869;51.982;4.450;2023-03-21T18:45:05;6.37;;;4.36;;
70450;SDS011;58869;51.982;4.450;2023-03-21T18:47:32;5.94;;;4.05;;
70450;SDS011;58869;51.982;4.450;2023-03-21T18:49:58;5.61;;;3.87;;
70450;SDS011;58869;51.982;4.450;2023-03-21T18:52:25;5.72;;;3.92;;
70450;SDS011;58869;51.982;4.450;2023-03-21T18:54:51;6.52;;;4.51;;
70450;SDS011;58869;51.982;4.450;2023-03-21T18:57:17;5.41;;;3.86;;
70450;SDS011;58869;51.982;4.450;2023-03-21T18:59:43;5.72;;;4.05;;
70450;SDS011;58869;51.982;4.450;2023-03-21T19:02:10;6.29;;;4.30;;
70450;SDS011;58869;51.982;4.450;2023-03-21T19:04:36;6.15;;;4.16;;
70450;SDS011;58869;51.982;4.450;2023-03-21T19:07:01;5.57;;;3.92;;
70450;SDS011;58869;51.982;4.450;2023-03-21T19:09:28;5.26;;;3.87;;
70450;SDS011;58869;51.982;4.450;2023-03-21T19:11:54;5.36;;;4.04;;
70450;SDS011;58869;51.982;4.450;2023-03-21T19:14:19;5.28;;;3.96;;
70450;SDS011;58869;51.982;4.450;2023-03-21T19:16:45;5.73;;;4.18;;
70450;SDS011;58869;51.982;4.450;2023-03-21T19:19:13;5.85;;;4.22;;
70450;SDS011;58869;51.982;4.450;2023-03-21T19:21:43;5.93;;;4.23;;
70450;SDS011;58869;51.982;4.450;2023-03-21T19:24:11;6.10;;;4.35;;
70450;SDS011;58869;51.982;4.450;2023-03-21T19:26:40;6.01;;;4.42;;
70450;SDS011;58869;51.982;4.450;2023-03-21T19:29:07;5.79;;;4.40;;
70450;SDS011;58869;51.982;4.450;2023-03-21T19:31:33;5.27;;;4.03;;
70450;SDS011;58869;51.982;4.450;2023-03-21T19:33:59;5.50;;;4.28;;
70450;SDS011;58869;51.982;4.450;2023-03-21T19:36:25;5.26;;;4.20;;
70450;SDS011;58869;51.982;4.450;2023-03-21T19:38:50;4.98;;;4.07;;
70450;SDS011;58869;51.982;4.450;2023-03-21T19:41:16;4.96;;;4.09;;
70450;SDS011;58869;51.982;4.450;2023-03-21T19:43:45;4.92;;;4.03;;
70450;SDS011;58869;51.982;4.450;2023-03-21T19:46:10;5.54;;;4.60;;
70450;SDS011;58869;51.982;4.450;2023-03-21T19:48:39;5.50;;;4.55;;
70450;SDS011;58869;51.982;4.450;2023-03-21T19:51:07;5.08;;;4.29;;
70450;SDS011;58869;51.982;4.450;2023-03-21T19:53:33;5.12;;;4.36;;
70450;SDS011;58869;51.982;4.450;2023-03-21T19:56:01;5.28;;;4.65;;
70450;SDS011;58869;51.982;4.450;2023-03-21T19:58:27;5.01;;;4.55;;
70450;SDS011;58869;51.982;4.450;2023-03-21T20:00:52;5.05;;;4.76;;
70450;SDS011;58869;51.982;4.450;2023-03-21T20:03:18;4.80;;;4.60;;
70450;SDS011;58869;51.982;4.450;2023-03-21T20:05:46;4.45;;;4.38;;